Lamont, Florida
Current Conditions -  °F | °C
As of 1:15 AM on Friday 19 Dec 2014 (Local Time) from K40J Reporting Station
Moderate Fog Moderate Fog  
Wind Chill: 42°   Ceiling: 500
Heat Index: 42°   Visibility: 0.5mi
Dew Point: 42°   Wind: 0mph
Humidity: 100%   Direction: NA
Pressure: 30.15"   Gusts: NA
Location:  30.38°N, 83.81°W
Report Text: K40J 190615Z AUTO 00000KT 1/2SM FG VV005 06/06 A3015 RMK AO2 VIS 1/2V1 3/4 T00570057
Loading
Personal Weather Stations






























Interactive Weather Map New forecast layout! Learn more

10-Day Weather Forecast

Advertisements
Track Severe Weather on mobile